Scroll down
FLIGHT INFORMATION
British Airways

BAW65

At Arrival Gate

EGLL
 HKJK
DATE: 2022-02-10
GATE: 563
GATE DEPARTURE: 10:41
TAKEOFF: 11:00
DATE: 2022-02-10
GATE: G2
LANDING: 19:20
GATE ARRIVAL: 19:28
FLIGHT DATA
Crew: 
Speed: 
900 kph
Altitude: 
41,026 ft
Stage Length: 
6,841.8 km
Block Time: 
8.7 hrs
Flight Time: 
8.3 hrs
Fuel Used: 
49,652 kg
Cleared Route: EGLL DET DVR KONAN KOK FERDI LIRSU LALMI ABTAL LATLO OBEDI KLAGY VANAX AGLIB PODOB MEDUX KOGAT TALAS ELPIS ROPOX KEA PAXIS DBA KATAB DESDO ORLEX ALKED NUBAR SOMAK MRW ITOMO IMDUR TAPOS EPLAS PATAR KIMET NAK HKJK
TRACK DATA
50,000 ft 1,000 kts
AIRCRAFT INFO AND CUMULATIVE STATS
Aircraft Type: 
B772
Registration: 
SELCAL: 
GKDS
MSN/LN: 
27489 / 65
Operator: 
Total Flights: 
4
Total Block Time: 
35.1 hrs
Total Flight Time: 
33.6 hrs
Total Fuel Used: 
158,861 kg
DATALINK LOG | Newest first | Current as of: 2022-09-29 23:53:40
LABEL SEQUENCE CONTENT Dn/Up
5Z305210 FEB 22 19:29:59z / FLT DECK GOOD / ACF POS GOOD / GRND SERVICES GOOD / MAINT GOOD▼ Dn
QD295119:28 21.3▼ Dn
QC204419:20▼ Dn
GA3166GATE G2▲ Up
GR3156HKJK 19:19 MAAS 00 YP/UM 00/00 WCHR/S/C 00/00/00 HI-VAL NO DIPL/VIP NO▼ Dn
2U1922HKJK 101730Z 04010KT 9999 FEW024 22/11 Q1019 NOSIG▲ Up
2S1944HKJK▼ Dn
UM203815CLEARED TO FL 410▲ Up
DM63805REQUEST FL 410 DUE TO A/C PERF▼ Dn
UM201155CLEARED TO FL 390▲ Up
DM61145REQUEST FL 390 DUE TO A/C PERF▼ Dn
QB003511:00▼ Dn
QA411610:41 130.9▼ Dn
5Z391410 FEB 22 10:38:40z / FLT DECK GOOD / ACF POS GOOD / GRND SERVICES GOOD / MAINT GOOD▼ Dn
2U2044EGLL 100950Z AUTO 28007KT 9999 NCD 06/04 Q1023▲ Up
2S1956EGLL▼ Dn
A31803CLEARED TO HKJK VIA DET2F DET L6 DVR UL9 KONAN UL607 FERDI LIRSU LALMI ABTAL LATLO OBEDI KLAGY VANAX AGLIB PODOB MEDUX UM867 KOGAT TALAS UM749 ELPIS UP20 ROPOX UN132 KEA PAXIS DBA KATAB DESDO P557 NUBAR UP315 IMDUR UY613 EPLAS UM304 NAK LANE1A. SQUAWK 0720.▲ Up
B31753EGLL HKJK BAW65 G-VIIG ▼ Dn
Q01551[LINK ACK]▲ Up
Q01551[LINK TEST]▼ Dn


AIRCRAFT HISTORY
FLIGHT DATE FLIGHT NO. ORIGIN DESTINATION CLEARED ROUTE BLOCK TIME FLIGHT TIME FUEL USED PILOT
2022-02-10BAW65EGLL HKJK EGLL DET DVR KONAN KOK FERDI LIRSU LALMI ABTAL LATLO OBEDI KLAGY VANAX AGLIB PODOB MEDUX KOGAT TALAS ELPIS ROPOX KEA PAXIS DBA KATAB DESDO ORLEX ALKED NUBAR SOMAK MRW ITOMO IMDUR TAPOS EPLAS PATAR KIMET NAK HKJK8.7 hrs8.3 hrs109,464 lbAnton Vind
2021-10-07BAW218KDEN EGLL KDEN ROYYL TURBN CHICN VELAA YOKES LNGWD CHUWY GRB YYB YQB PQI MIILS JOOPY 4950N 5040N 5130N 5220N LIMRI XETBO EVRIN NEKAP LAZTU ABDUK NUMPO OKESI HOFIK BEDEK EGLL9.1 hrs8.8 hrs116,409 lbAnton Vind
2021-10-03BAW219EGLL KDEN EGLL CPT KENET UGNUS OKTAD DOBEM TOPRO MEDOG FOXLA ABAPO PEMOB LANPI BAKUR ERNAN AMLAD SUNOT 5820N 5930N 5940N 5750N HOIST OMTOL DEGMI YVO DASUG UZMEF CUNOS GEP FSD ONL NARLY YANKI KDEN9.5 hrs9.1 hrs124,357 lbAnton Vind
2021-09-24BAW112KJFK EGLL MERIT DCT HFD DCT PUT DCT WITCH DCT ALLEX N379A ALLRY NATX BEXET DCT BAKUR N546 STU P2 BEDEK7.7 hrs7.3 hrs0 lbAnton Vind